createdAt,value
2023-04-22T00:02:09.712Z,50.04
2023-04-22T00:04:37.770Z,50.05
2023-04-22T00:07:05.378Z,49.91
2023-04-22T00:09:32.809Z,49.81
2023-04-22T00:12:01.857Z,49.94
2023-04-22T00:14:29.257Z,50.12
2023-04-22T00:16:57.464Z,49.68
2023-04-22T00:19:25.675Z,49.49
2023-04-22T00:21:53.164Z,49.94
2023-04-22T00:24:20.579Z,49.71
2023-04-22T00:26:48.246Z,49.89
2023-04-22T00:29:15.659Z,49.64
2023-04-22T00:31:43.063Z,49.97
2023-04-22T00:34:10.849Z,49.71
2023-04-22T00:36:38.220Z,49.50
2023-04-22T00:39:06.433Z,49.46
2023-04-22T00:41:34.493Z,49.68
2023-04-22T00:44:01.919Z,49.49
2023-04-22T00:46:29.546Z,49.33
2023-04-22T00:48:57.510Z,49.17
2023-04-22T00:51:24.900Z,49.16
2023-04-22T00:53:52.507Z,49.21
2023-04-22T00:56:20.782Z,49.42
2023-04-22T00:58:48.233Z,48.98
2023-04-22T01:01:15.823Z,49.28
2023-04-22T01:03:43.695Z,49.41
2023-04-22T01:06:11.420Z,49.79
2023-04-22T01:08:40.889Z,50.11
2023-04-22T01:11:08.617Z,50.45
2023-04-22T01:13:38.153Z,49.61
2023-04-22T01:16:08.918Z,49.88
2023-04-22T01:18:37.233Z,49.76
2023-04-22T01:21:05.572Z,49.74
2023-04-22T01:23:33.016Z,49.74
2023-04-22T01:26:00.849Z,49.58
2023-04-22T01:28:28.778Z,49.37
2023-04-22T01:30:56.367Z,49.68
2023-04-22T01:33:24.210Z,49.81
2023-04-22T01:35:52.056Z,49.50
2023-04-22T01:38:19.644Z,49.17
2023-04-22T01:40:47.407Z,49.30
2023-04-22T01:43:14.824Z,49.33
2023-04-22T01:45:42.599Z,49.40
2023-04-22T01:48:11.265Z,49.42
2023-04-22T01:50:38.726Z,49.93
2023-04-22T01:53:07.555Z,49.67
2023-04-22T01:55:37.982Z,49.99
2023-04-22T01:58:05.693Z,50.04
2023-04-22T02:00:33.179Z,50.45
2023-04-22T02:03:01.041Z,50.25
2023-04-22T02:05:28.614Z,50.45
2023-04-22T02:07:56.434Z,50.28
2023-04-22T02:10:24.145Z,51.00
2023-04-22T02:12:51.510Z,50.77
2023-04-22T02:15:18.951Z,51.36
2023-04-22T02:17:47.030Z,50.91
2023-04-22T02:20:14.664Z,50.96
2023-04-22T02:22:43.559Z,51.36
2023-04-22T02:25:12.280Z,51.32
2023-04-22T02:27:40.030Z,51.23
2023-04-22T02:30:09.696Z,51.59
2023-04-22T02:32:38.865Z,51.32
2023-04-22T02:35:06.987Z,50.82
2023-04-22T02:37:34.448Z,50.89
2023-04-22T02:40:02.249Z,51.29
2023-04-22T02:42:30.475Z,51.23
2023-04-22T02:44:57.915Z,51.34
2023-04-22T02:47:25.700Z,51.08
2023-04-22T02:49:53.167Z,51.42
2023-04-22T02:52:20.776Z,51.57
2023-04-22T02:54:48.547Z,51.87
2023-04-22T02:57:15.987Z,51.46
2023-04-22T02:59:43.563Z,51.66
2023-04-22T03:02:13.340Z,51.48
2023-04-22T03:04:41.600Z,51.87
2023-04-22T03:07:09.554Z,51.70
2023-04-22T03:09:37.407Z,51.95
2023-04-22T03:12:05.226Z,51.79
2023-04-22T03:14:32.685Z,52.09
2023-04-22T03:17:00.425Z,52.02
2023-04-22T03:19:28.067Z,51.97
2023-04-22T03:21:56.555Z,52.06
2023-04-22T03:24:24.310Z,51.67
2023-04-22T03:26:52.003Z,52.25
2023-04-22T03:29:19.465Z,52.01
2023-04-22T03:31:47.263Z,52.01
2023-04-22T03:34:14.972Z,52.12
2023-04-22T03:36:42.962Z,51.82
2023-04-22T03:39:11.280Z,52.29
2023-04-22T03:41:39.427Z,52.56
2023-04-22T03:44:06.827Z,52.74
2023-04-22T03:46:35.009Z,52.57
2023-04-22T03:49:03.251Z,52.63
2023-04-22T03:51:32.248Z,52.42
2023-04-22T03:54:00.802Z,52.41
2023-04-22T03:56:28.886Z,52.83
2023-04-22T03:58:56.528Z,52.69
2023-04-22T04:01:24.566Z,52.92
2023-04-22T04:03:53.685Z,52.85
2023-04-22T04:06:21.742Z,53.05
2023-04-22T04:08:49.190Z,53.24
2023-04-22T04:11:17.089Z,53.16
2023-04-22T04:13:44.805Z,53.09
2023-04-22T04:16:12.874Z,53.12
2023-04-22T04:18:41.472Z,53.23
2023-04-22T04:21:09.033Z,53.36
2023-04-22T04:23:37.922Z,52.90
2023-04-22T04:26:05.783Z,53.21
2023-04-22T04:28:35.240Z,53.58
2023-04-22T04:31:03.058Z,53.80
2023-04-22T04:33:32.542Z,53.91
2023-04-22T04:36:00.699Z,54.07
2023-04-22T04:38:29.008Z,54.05
2023-04-22T04:40:56.858Z,54.01
2023-04-22T04:43:25.881Z,53.74
2023-04-22T04:45:54.143Z,53.75
2023-04-22T04:48:25.003Z,53.80
2023-04-22T04:50:54.203Z,53.50
2023-04-22T04:53:22.575Z,53.56
2023-04-22T04:55:50.009Z,53.52
2023-04-22T04:58:17.971Z,53.63
2023-04-22T05:00:46.937Z,53.45
2023-04-22T05:03:15.803Z,53.20
2023-04-22T05:05:46.276Z,53.21
2023-04-22T05:08:14.049Z,53.18
2023-04-22T05:10:42.493Z,53.33
2023-04-22T05:13:09.990Z,53.45
2023-04-22T05:15:37.855Z,53.24
2023-04-22T05:18:05.594Z,52.87
2023-04-22T05:20:35.907Z,52.93
2023-04-22T05:23:04.467Z,52.77
2023-04-22T05:25:32.641Z,52.18
2023-04-22T05:28:00.893Z,51.56
2023-04-22T05:30:30.003Z,51.03
2023-04-22T05:32:57.780Z,50.77
2023-04-22T05:35:25.231Z,50.59
2023-04-22T05:37:53.156Z,51.11
2023-04-22T05:40:20.791Z,49.69
2023-04-22T05:42:48.316Z,48.79
2023-04-22T05:45:16.162Z,48.56
2023-04-22T05:47:43.765Z,47.43
2023-04-22T05:50:11.574Z,46.64
2023-04-22T05:52:39.906Z,45.82
2023-04-22T05:55:08.215Z,45.73
2023-04-22T05:57:35.664Z,47.74
2023-04-22T06:00:04.952Z,46.27
2023-04-22T06:02:41.219Z,46.58
2023-04-22T06:05:09.760Z,45.91
2023-04-22T06:07:38.331Z,44.13
2023-04-22T06:10:07.575Z,44.94
2023-04-22T06:12:35.421Z,45.24
2023-04-22T06:15:03.158Z,43.57
2023-04-22T06:17:31.369Z,42.86
2023-04-22T06:19:59.391Z,40.18
2023-04-22T06:22:26.944Z,39.41
2023-04-22T06:24:54.417Z,39.06
2023-04-22T06:27:22.174Z,36.66
2023-04-22T06:29:49.666Z,36.46
2023-04-22T06:32:17.249Z,36.72
2023-04-22T06:34:45.140Z,36.69
2023-04-22T06:37:13.134Z,36.34
2023-04-22T06:39:41.013Z,35.91
2023-04-22T06:42:10.235Z,36.58
2023-04-22T06:44:38.524Z,35.35
2023-04-22T06:47:06.485Z,35.79
2023-04-22T06:49:38.637Z,35.09
2023-04-22T06:52:07.687Z,34.61
2023-04-22T06:54:35.282Z,34.40
2023-04-22T06:57:03.334Z,32.19
2023-04-22T06:59:30.819Z,32.12
2023-04-22T07:01:58.450Z,30.86
2023-04-22T07:04:29.286Z,29.86
2023-04-22T07:06:58.547Z,28.43
2023-04-22T07:09:26.653Z,28.01
2023-04-22T07:11:54.353Z,41.88
2023-04-22T07:14:21.785Z,37.99
2023-04-22T07:16:49.480Z,34.42
2023-04-22T07:19:17.011Z,31.01
2023-04-22T07:21:44.538Z,30.80
2023-04-22T07:24:13.240Z,28.13
2023-04-22T07:26:41.690Z,28.64
2023-04-22T07:29:09.164Z,28.19
2023-04-22T07:31:36.965Z,27.63
2023-04-22T07:34:04.714Z,26.84
2023-04-22T07:36:32.787Z,26.67
2023-04-22T07:39:00.460Z,26.04
2023-04-22T07:41:27.968Z,23.09
2023-04-22T07:43:55.752Z,22.41
2023-04-22T07:46:23.648Z,23.03
2023-04-22T07:48:51.146Z,22.39
2023-04-22T07:51:18.545Z,21.88
2023-04-22T07:53:46.405Z,22.67
2023-04-22T07:56:13.829Z,21.88
2023-04-22T07:58:41.205Z,22.25
2023-04-22T08:01:08.940Z,22.48
2023-04-22T08:03:36.951Z,21.63
2023-04-22T08:06:04.514Z,21.32
2023-04-22T08:08:31.950Z,21.39
2023-04-22T08:10:59.594Z,21.72
2023-04-22T08:13:27.056Z,21.37
2023-04-22T08:15:54.477Z,21.73
2023-04-22T08:18:22.248Z,21.50
2023-04-22T08:20:50.633Z,21.35
2023-04-22T08:23:18.087Z,21.51
2023-04-22T08:25:45.792Z,21.15
2023-04-22T08:28:13.211Z,21.95
2023-04-22T08:30:41.013Z,21.47
2023-04-22T08:33:08.780Z,22.19
2023-04-22T08:35:36.625Z,21.48
2023-04-22T08:38:04.023Z,21.97
2023-04-22T08:40:31.723Z,21.87
2023-04-22T08:42:59.194Z,22.07
2023-04-22T08:45:26.770Z,22.19
2023-04-22T08:47:54.721Z,22.74
2023-04-22T08:50:22.445Z,22.63
2023-04-22T08:52:49.910Z,22.69
2023-04-22T08:55:17.723Z,22.36
2023-04-22T08:57:45.388Z,22.41
2023-04-22T09:00:13.454Z,21.56
2023-04-22T09:02:44.942Z,22.63
2023-04-22T09:05:14.084Z,22.54
2023-04-22T09:07:42.051Z,22.01
2023-04-22T09:10:11.804Z,21.74
2023-04-22T09:12:41.178Z,22.39
2023-04-22T09:15:09.870Z,21.95
2023-04-22T09:17:41.416Z,21.42
2023-04-22T09:20:09.865Z,21.80
2023-04-22T09:22:42.820Z,22.14
2023-04-22T09:25:20.632Z,21.32
2023-04-22T09:27:52.135Z,22.69
2023-04-22T09:30:28.619Z,23.00
2023-04-22T09:33:00.563Z,22.16
2023-04-22T09:35:33.533Z,21.38
2023-04-22T09:38:02.680Z,22.11
2023-04-22T09:40:31.098Z,21.90
2023-04-22T09:43:02.544Z,21.68
2023-04-22T09:45:35.400Z,23.27
2023-04-22T09:48:04.208Z,23.34
2023-04-22T09:50:31.937Z,22.45
2023-04-22T09:53:05.365Z,22.49
2023-04-22T09:55:36.352Z,21.98
2023-04-22T09:58:14.743Z,21.93
2023-04-22T10:00:52.472Z,21.88
2023-04-22T10:03:20.446Z,21.90
2023-04-22T10:05:48.113Z,22.05
2023-04-22T10:08:16.780Z,21.78
2023-04-22T10:10:44.940Z,22.13
2023-04-22T10:13:12.465Z,22.06
2023-04-22T10:15:42.526Z,21.69
2023-04-22T10:18:13.036Z,21.37
2023-04-22T10:20:42.305Z,22.22
2023-04-22T10:23:16.134Z,22.43
2023-04-22T10:25:48.817Z,22.72
2023-04-22T10:28:17.585Z,21.87
2023-04-22T10:30:45.268Z,21.34
2023-04-22T10:33:23.670Z,21.14
2023-04-22T10:36:12.768Z,20.72
2023-04-22T10:38:42.381Z,21.05
2023-04-22T10:41:17.013Z,21.17
2023-04-22T10:43:48.779Z,21.60
2023-04-22T10:46:33.063Z,21.48
2023-04-22T10:49:07.144Z,22.03
2023-04-22T10:51:40.882Z,21.84
2023-04-22T10:54:31.412Z,21.83
2023-04-22T10:57:16.183Z,22.26
2023-04-22T10:59:54.458Z,22.56
2023-04-22T11:02:22.988Z,23.90
2023-04-22T11:04:54.427Z,23.39
2023-04-22T11:07:28.082Z,23.51
2023-04-22T11:10:05.407Z,23.12
2023-04-22T11:12:35.996Z,24.37
2023-04-22T11:15:08.029Z,25.33
2023-04-22T11:17:36.633Z,24.60
2023-04-22T11:20:05.267Z,24.09
2023-04-22T11:22:37.299Z,23.87
2023-04-22T11:25:06.077Z,24.56
2023-04-22T11:27:33.523Z,24.60
2023-04-22T11:30:00.875Z,24.96
2023-04-22T11:32:29.182Z,25.17
2023-04-22T11:34:57.860Z,25.15
2023-04-22T11:37:25.416Z,25.34
2023-04-22T11:40:13.557Z,24.97
2023-04-22T11:42:40.771Z,25.72
2023-04-22T11:45:09.056Z,25.54
2023-04-22T11:47:36.667Z,23.86
2023-04-22T11:50:09.325Z,24.37
2023-04-22T11:52:46.001Z,24.60
2023-04-22T11:55:14.893Z,24.80
2023-04-22T11:57:43.339Z,23.78
2023-04-22T12:00:13.655Z,24.24
2023-04-22T12:02:42.019Z,23.95
2023-04-22T12:05:11.803Z,23.95
2023-04-22T12:07:39.958Z,24.03
2023-04-22T12:10:08.174Z,23.82
2023-04-22T12:12:37.162Z,23.63
2023-04-22T12:15:13.608Z,24.09
2023-04-22T12:17:45.046Z,24.17
2023-04-22T12:20:13.083Z,24.55
2023-04-22T12:22:40.497Z,23.81
2023-04-22T12:25:09.921Z,23.90
2023-04-22T12:27:37.414Z,23.72
2023-04-22T12:30:06.066Z,23.45
2023-04-22T12:32:34.617Z,24.87
2023-04-22T12:35:02.096Z,24.87
2023-04-22T12:37:29.462Z,22.92
2023-04-22T12:39:57.182Z,22.98
2023-04-22T12:42:24.590Z,23.97
2023-04-22T12:44:51.952Z,24.40
2023-04-22T12:47:19.885Z,22.85
2023-04-22T12:49:47.739Z,23.79
2023-04-22T12:52:15.267Z,23.03
2023-04-22T12:54:42.935Z,22.37
2023-04-22T12:57:10.423Z,22.68
2023-04-22T12:59:38.078Z,22.08
2023-04-22T13:02:06.136Z,22.25
2023-04-22T13:04:33.731Z,21.89
2023-04-22T13:07:01.202Z,21.22
2023-04-22T13:09:28.940Z,21.35
2023-04-22T13:11:56.346Z,21.20
2023-04-22T13:14:23.793Z,21.46
2023-04-22T13:16:52.058Z,21.05
2023-04-22T13:19:19.843Z,21.49
2023-04-22T13:21:47.251Z,21.64
2023-04-22T13:24:14.928Z,20.81
2023-04-22T13:26:42.446Z,20.92
2023-04-22T13:29:14.119Z,21.63
2023-04-22T13:31:42.656Z,21.06
2023-04-22T13:34:11.234Z,20.90
2023-04-22T13:36:38.635Z,20.64
2023-04-22T13:39:06.469Z,21.42
2023-04-22T13:41:33.990Z,22.32
2023-04-22T13:44:02.007Z,22.05
2023-04-22T13:46:30.001Z,21.88
2023-04-22T13:48:58.226Z,21.71
2023-04-22T13:51:25.843Z,22.02
2023-04-22T13:53:53.575Z,21.59
2023-04-22T13:56:20.993Z,21.19
2023-04-22T13:58:48.914Z,21.41
2023-04-22T14:01:16.898Z,20.94
2023-04-22T14:03:45.126Z,21.46
2023-04-22T14:06:12.663Z,21.05
2023-04-22T14:08:40.554Z,21.30
2023-04-22T14:11:08.949Z,21.25
2023-04-22T14:13:36.770Z,21.71
2023-04-22T14:16:09.734Z,21.54
2023-04-22T14:18:38.634Z,21.47
2023-04-22T14:21:09.186Z,21.14
2023-04-22T14:23:38.125Z,21.72
2023-04-22T14:26:08.333Z,21.65
2023-04-22T14:28:36.725Z,21.21
2023-04-22T14:31:04.323Z,22.15
2023-04-22T14:33:32.511Z,23.11
2023-04-22T14:36:00.007Z,21.85
2023-04-22T14:38:27.474Z,22.50
2023-04-22T14:40:55.283Z,22.01
2023-04-22T14:43:25.405Z,21.72
2023-04-22T14:45:53.102Z,21.32
2023-04-22T14:48:20.852Z,21.67
2023-04-22T14:50:48.252Z,21.68
2023-04-22T14:53:15.985Z,21.50
2023-04-22T14:55:43.687Z,21.30
2023-04-22T14:58:11.080Z,23.23
2023-04-22T15:00:38.586Z,23.02
2023-04-22T15:03:06.463Z,22.92
2023-04-22T15:05:33.965Z,22.66
2023-04-22T15:08:01.387Z,22.62
2023-04-22T15:10:29.052Z,21.92
2023-04-22T15:12:56.800Z,22.47
2023-04-22T15:15:24.299Z,21.57
2023-04-22T15:17:52.060Z,21.16
2023-04-22T15:20:22.715Z,21.24
2023-04-22T15:22:50.154Z,20.73
2023-04-22T15:25:18.458Z,22.00
2023-04-22T15:27:46.529Z,21.90
2023-04-22T15:30:14.473Z,21.83
2023-04-22T15:32:42.192Z,22.55
2023-04-22T15:35:10.045Z,22.59
2023-04-22T15:37:37.503Z,23.12
2023-04-22T15:40:06.895Z,23.03
2023-04-22T15:42:34.273Z,21.81
2023-04-22T15:45:03.873Z,21.43
2023-04-22T15:47:33.062Z,21.50
2023-04-22T15:50:06.719Z,21.13
2023-04-22T15:52:35.197Z,21.58
2023-04-22T15:55:02.613Z,21.90
2023-04-22T15:57:34.394Z,21.60
2023-04-22T16:00:12.680Z,22.03
2023-04-22T16:02:43.247Z,22.51
2023-04-22T16:05:11.966Z,22.50
2023-04-22T16:07:40.242Z,22.52
2023-04-22T16:10:09.009Z,22.43
2023-04-22T16:12:36.835Z,22.83
2023-04-22T16:15:04.647Z,22.74
2023-04-22T16:17:32.276Z,22.62
2023-04-22T16:20:00.066Z,22.77
2023-04-22T16:22:27.482Z,22.74
2023-04-22T16:24:54.913Z,22.04
2023-04-22T16:27:22.607Z,23.15
2023-04-22T16:29:50.051Z,22.71
2023-04-22T16:32:17.441Z,22.22
2023-04-22T16:34:45.142Z,22.07
2023-04-22T16:37:12.525Z,21.76
2023-04-22T16:39:40.220Z,22.94
2023-04-22T16:42:08.197Z,23.19
2023-04-22T16:44:35.630Z,23.73
2023-04-22T16:47:03.131Z,22.92
2023-04-22T16:49:31.223Z,22.15
2023-04-22T16:51:59.017Z,22.40
2023-04-22T16:54:26.490Z,22.36
2023-04-22T16:56:54.153Z,22.44
2023-04-22T16:59:21.703Z,22.51
2023-04-22T17:01:49.231Z,22.57
2023-04-22T17:04:17.729Z,22.89
2023-04-22T17:06:45.997Z,23.15
2023-04-22T17:09:13.379Z,23.71
2023-04-22T17:11:41.101Z,27.10
2023-04-22T17:14:08.582Z,25.53
2023-04-22T17:16:36.218Z,24.49
2023-04-22T17:19:05.242Z,23.81
2023-04-22T17:21:34.334Z,24.23
2023-04-22T17:24:03.772Z,24.54
2023-04-22T17:26:32.384Z,24.81
2023-04-22T17:28:59.768Z,24.87
2023-04-22T17:31:27.225Z,24.99
2023-04-22T17:33:54.982Z,25.45
2023-04-22T17:36:22.417Z,25.72
2023-04-22T17:38:49.903Z,26.04
2023-04-22T17:41:18.543Z,26.25
2023-04-22T17:43:46.022Z,26.36
2023-04-22T17:46:13.495Z,26.12
2023-04-22T17:48:41.941Z,26.57
2023-04-22T17:51:10.150Z,27.11
2023-04-22T17:53:39.872Z,27.68
2023-04-22T17:56:08.590Z,28.26
2023-04-22T17:58:38.533Z,28.49
2023-04-22T18:01:06.459Z,28.50
2023-04-22T18:03:34.723Z,28.50
2023-04-22T18:06:02.705Z,28.52
2023-04-22T18:08:30.770Z,29.16
2023-04-22T18:10:58.625Z,29.57
2023-04-22T18:13:26.082Z,29.90
2023-04-22T18:15:53.589Z,30.16
2023-04-22T18:18:21.352Z,31.01
2023-04-22T18:20:48.809Z,30.95
2023-04-22T18:23:16.172Z,31.33
2023-04-22T18:25:43.930Z,31.66
2023-04-22T18:28:11.295Z,32.34
2023-04-22T18:30:38.744Z,32.71
2023-04-22T18:33:06.530Z,36.02
2023-04-22T18:35:35.601Z,36.55
2023-04-22T18:38:03.068Z,34.36
2023-04-22T18:40:30.796Z,34.10
2023-04-22T18:42:58.321Z,34.42
2023-04-22T18:45:25.782Z,34.59
2023-04-22T18:47:53.522Z,35.52
2023-04-22T18:50:27.157Z,36.01
2023-04-22T18:52:54.888Z,36.31
2023-04-22T18:55:22.479Z,36.83
2023-04-22T18:57:49.893Z,36.37
2023-04-22T19:00:17.904Z,36.73
2023-04-22T19:02:46.013Z,37.16
2023-04-22T19:05:14.556Z,37.72
2023-04-22T19:07:44.455Z,38.10
2023-04-22T19:10:12.853Z,38.23
2023-04-22T19:12:40.447Z,38.28
2023-04-22T19:15:08.601Z,38.83
2023-04-22T19:17:36.115Z,39.21
2023-04-22T19:20:05.211Z,39.17
2023-04-22T19:22:32.973Z,39.48
2023-04-22T19:25:01.082Z,39.59
2023-04-22T19:27:28.727Z,39.80
2023-04-22T19:29:56.403Z,39.91
2023-04-22T19:32:24.531Z,39.56
2023-04-22T19:34:52.258Z,40.25
2023-04-22T19:37:20.192Z,40.38
2023-04-22T19:39:47.928Z,39.85
2023-04-22T19:42:15.759Z,40.15
2023-04-22T19:44:47.252Z,40.51
2023-04-22T19:47:15.679Z,40.63
2023-04-22T19:49:43.984Z,41.02
2023-04-22T19:52:13.843Z,41.57
2023-04-22T19:54:41.713Z,41.82
2023-04-22T19:57:10.429Z,41.59
2023-04-22T19:59:40.048Z,41.81
2023-04-22T20:02:09.640Z,41.94
2023-04-22T20:04:38.220Z,41.79
2023-04-22T20:07:06.904Z,42.07
2023-04-22T20:09:34.974Z,41.97
2023-04-22T20:12:03.374Z,42.22
2023-04-22T20:14:31.546Z,42.34
2023-04-22T20:16:59.178Z,42.17
2023-04-22T20:19:28.343Z,42.25
2023-04-22T20:21:57.330Z,42.26
2023-04-22T20:24:26.713Z,42.27
2023-04-22T20:26:55.039Z,42.45
2023-04-22T20:29:22.764Z,42.53
2023-04-22T20:31:50.374Z,42.99
2023-04-22T20:34:18.278Z,43.47
2023-04-22T20:36:46.265Z,43.55
2023-04-22T20:39:14.540Z,43.44
2023-04-22T20:41:42.562Z,43.77
2023-04-22T20:44:10.669Z,43.76
2023-04-22T20:46:38.386Z,43.74
2023-04-22T20:49:07.068Z,43.96
2023-04-22T20:51:35.223Z,44.12
2023-04-22T20:54:03.846Z,44.63
2023-04-22T20:56:39.904Z,44.64
2023-04-22T20:59:07.474Z,45.08
2023-04-22T21:01:35.512Z,44.50
2023-04-22T21:04:03.754Z,44.91
2023-04-22T21:06:35.053Z,44.93
2023-04-22T21:09:03.382Z,44.98
2023-04-22T21:11:31.158Z,45.50
2023-04-22T21:13:59.289Z,45.23
2023-04-22T21:16:29.763Z,45.13
2023-04-22T21:18:59.782Z,45.17
2023-04-22T21:21:34.888Z,45.03
2023-04-22T21:24:04.903Z,45.06
2023-04-22T21:26:34.070Z,45.52
2023-04-22T21:29:01.701Z,45.96
2023-04-22T21:31:29.389Z,46.06
2023-04-22T21:33:57.455Z,45.78
2023-04-22T21:36:25.256Z,45.56
2023-04-22T21:38:52.934Z,45.78
2023-04-22T21:41:20.954Z,45.92
2023-04-22T21:43:48.767Z,46.24
2023-04-22T21:46:16.214Z,46.39
2023-04-22T21:48:44.344Z,46.52
2023-04-22T21:51:11.912Z,46.56
2023-04-22T21:53:39.279Z,46.63
2023-04-22T21:56:06.961Z,46.68
2023-04-22T21:58:34.400Z,46.58
2023-04-22T22:01:01.820Z,46.39
2023-04-22T22:03:29.682Z,46.85
2023-04-22T22:05:57.472Z,46.86
2023-04-22T22:08:24.865Z,47.07
2023-04-22T22:10:52.604Z,47.32
2023-04-22T22:13:20.069Z,47.70
2023-04-22T22:15:47.679Z,47.51
2023-04-22T22:18:15.665Z,47.85
2023-04-22T22:20:44.459Z,47.95
2023-04-22T22:23:12.074Z,47.83
2023-04-22T22:25:39.724Z,47.76
2023-04-22T22:28:07.131Z,47.71
2023-04-22T22:30:34.567Z,47.87
2023-04-22T22:33:02.332Z,47.86
2023-04-22T22:35:30.180Z,47.66
2023-04-22T22:37:57.609Z,47.77
2023-04-22T22:40:25.458Z,47.63
2023-04-22T22:42:53.205Z,47.87
2023-04-22T22:45:20.584Z,47.23
2023-04-22T22:47:48.424Z,47.48
2023-04-22T22:50:15.920Z,47.08
2023-04-22T22:52:43.311Z,47.41
2023-04-22T22:55:11.077Z,47.55
2023-04-22T22:57:38.486Z,47.66
2023-04-22T23:00:07.084Z,47.88
2023-04-22T23:02:35.115Z,47.81
2023-04-22T23:05:02.753Z,47.97
2023-04-22T23:07:30.228Z,47.96
2023-04-22T23:09:58.037Z,48.02
2023-04-22T23:12:25.589Z,47.80
2023-04-22T23:14:53.222Z,48.11
2023-04-22T23:17:22.439Z,48.40
2023-04-22T23:19:51.894Z,48.29
2023-04-22T23:22:19.351Z,48.38
2023-04-22T23:24:47.611Z,48.26
2023-04-22T23:27:16.209Z,48.47
2023-04-22T23:29:44.354Z,48.15
2023-04-22T23:32:14.952Z,48.37
2023-04-22T23:34:44.935Z,48.00
2023-04-22T23:37:14.894Z,48.34
2023-04-22T23:39:42.555Z,48.52
2023-04-22T23:42:10.828Z,48.67
2023-04-22T23:44:38.854Z,48.92
2023-04-22T23:47:06.506Z,48.85
2023-04-22T23:49:34.130Z,48.72
2023-04-22T23:52:01.810Z,48.82
2023-04-22T23:54:30.152Z,48.74
2023-04-22T23:56:58.029Z,48.61
2023-04-22T23:59:26.072Z,48.61
